createdAt,value
2019-03-13T00:00:46.565Z,155.73
2019-03-13T00:03:15.151Z,154.00
2019-03-13T00:05:43.839Z,167.63
2019-03-13T00:08:12.287Z,158.03
2019-03-13T00:10:40.993Z,162.20
2019-03-13T00:13:09.682Z,157.97
2019-03-13T00:15:38.494Z,153.97
2019-03-13T00:18:07.184Z,154.97
2019-03-13T00:20:35.747Z,156.90
2019-03-13T00:23:04.401Z,162.23
2019-03-13T00:25:33.023Z,153.83
2019-03-13T00:28:01.653Z,166.27
2019-03-13T00:30:30.313Z,157.60
2019-03-13T00:32:59.031Z,156.83
2019-03-13T00:35:27.729Z,156.27
2019-03-13T00:37:56.421Z,168.07
2019-03-13T00:40:25.877Z,151.90
2019-03-13T00:42:54.511Z,160.27
2019-03-13T00:45:23.172Z,160.63
2019-03-13T00:47:51.820Z,155.13
2019-03-13T00:50:25.948Z,152.83
2019-03-13T00:52:54.634Z,160.17
2019-03-13T00:55:23.357Z,158.83
2019-03-13T00:57:52.041Z,157.10
2019-03-13T01:00:25.082Z,161.43
2019-03-13T01:02:54.907Z,157.07
2019-03-13T01:05:25.093Z,152.60
2019-03-13T01:07:53.693Z,154.57
2019-03-13T01:10:22.249Z,159.07
2019-03-13T01:12:50.555Z,158.43
2019-03-13T01:15:19.290Z,150.40
2019-03-13T01:17:47.836Z,152.40
2019-03-13T01:20:16.525Z,159.83
2019-03-13T01:22:44.870Z,151.67
2019-03-13T01:25:13.487Z,152.20
2019-03-13T01:27:41.799Z,151.27
2019-03-13T01:30:12.621Z,153.80
2019-03-13T01:32:45.796Z,152.27
2019-03-13T01:35:15.993Z,152.17
2019-03-13T01:37:44.654Z,154.77
2019-03-13T01:40:13.209Z,151.67
2019-03-13T01:42:42.624Z,154.27
2019-03-13T01:45:11.502Z,151.30
2019-03-13T01:47:40.047Z,156.07
2019-03-13T01:50:11.226Z,152.10
2019-03-13T01:52:39.818Z,161.47
2019-03-13T01:55:09.736Z,155.93
2019-03-13T01:57:38.286Z,155.30
2019-03-13T02:00:12.602Z,155.67
2019-03-13T02:02:41.305Z,160.13
2019-03-13T02:05:09.855Z,155.03
2019-03-13T02:07:38.518Z,158.53
2019-03-13T02:10:09.741Z,160.23
2019-03-13T02:12:38.292Z,162.70
2019-03-13T02:15:09.737Z,157.67
2019-03-13T02:17:38.044Z,159.07
2019-03-13T02:20:08.735Z,158.80
2019-03-13T02:22:37.347Z,159.60
2019-03-13T02:25:08.822Z,164.80
2019-03-13T02:27:37.515Z,166.60
2019-03-13T02:30:23.061Z,163.23
2019-03-13T02:32:51.595Z,163.93
2019-03-13T02:35:20.273Z,155.43
2019-03-13T02:37:49.010Z,151.53
2019-03-13T02:40:17.562Z,149.33
2019-03-13T02:42:45.936Z,158.40
2019-03-13T02:45:15.783Z,159.17
2019-03-13T02:47:44.327Z,153.23
2019-03-13T02:50:15.348Z,156.87
2019-03-13T02:52:43.945Z,161.60
2019-03-13T02:55:12.794Z,161.70
2019-03-13T02:57:41.433Z,172.80
2019-03-13T03:00:37.906Z,155.30
2019-03-13T03:03:08.300Z,158.50
2019-03-13T03:05:36.929Z,151.63
2019-03-13T03:08:05.504Z,156.37
2019-03-13T03:10:34.121Z,153.77
2019-03-13T03:13:03.072Z,149.37
2019-03-13T03:15:31.717Z,152.10
2019-03-13T03:18:00.313Z,156.73
2019-03-13T03:20:28.896Z,156.10
2019-03-13T03:22:57.213Z,163.53
2019-03-13T03:25:25.875Z,162.87
2019-03-13T03:27:54.418Z,156.30
2019-03-13T03:30:23.988Z,151.87
2019-03-13T03:32:52.579Z,151.43
2019-03-13T03:35:21.213Z,149.33
2019-03-13T03:37:49.760Z,149.93
2019-03-13T03:40:22.493Z,146.90
2019-03-13T03:42:48.980Z,153.57
2019-03-13T03:45:17.273Z,148.50
2019-03-13T03:47:45.774Z,150.00
2019-03-13T03:50:15.245Z,144.30
2019-03-13T03:52:43.777Z,146.60
2019-03-13T03:55:13.839Z,149.77
2019-03-13T03:57:42.021Z,159.63
2019-03-13T04:00:13.365Z,158.07
2019-03-13T04:02:42.003Z,146.33
2019-03-13T04:05:10.508Z,155.13
2019-03-13T04:07:39.189Z,147.70
2019-03-13T04:10:14.767Z,147.83
2019-03-13T04:12:43.459Z,151.03
2019-03-13T04:15:16.526Z,148.87
2019-03-13T04:17:45.186Z,151.33
2019-03-13T04:20:15.877Z,149.93
2019-03-13T04:22:44.347Z,153.33
2019-03-13T04:25:27.853Z,152.93
2019-03-13T04:27:56.478Z,162.60
2019-03-13T04:30:25.054Z,157.27
2019-03-13T04:32:53.572Z,152.80
2019-03-13T04:35:22.134Z,163.50
2019-03-13T04:37:51.092Z,157.93
2019-03-13T04:40:19.769Z,153.53
2019-03-13T04:42:48.331Z,159.67
2019-03-13T04:45:16.896Z,155.20
2019-03-13T04:47:45.499Z,156.23
2019-03-13T04:50:15.998Z,163.57
2019-03-13T04:52:44.496Z,159.43
2019-03-13T04:55:16.794Z,160.20
2019-03-13T04:57:45.419Z,164.80
2019-03-13T05:00:21.427Z,171.33
2019-03-13T05:02:50.068Z,167.87
2019-03-13T05:05:33.923Z,163.33
2019-03-13T05:08:02.499Z,175.17
2019-03-13T05:10:31.061Z,172.13
2019-03-13T05:12:59.720Z,184.80
2019-03-13T05:15:28.264Z,171.53
2019-03-13T05:17:56.761Z,165.23
2019-03-13T05:20:25.432Z,172.20
2019-03-13T05:22:53.928Z,172.80
2019-03-13T05:25:22.425Z,162.50
2019-03-13T05:27:51.025Z,174.77
2019-03-13T05:30:19.526Z,159.97
2019-03-13T05:32:48.090Z,162.20
2019-03-13T05:35:16.619Z,163.00
2019-03-13T05:37:45.260Z,164.03
2019-03-13T05:40:13.898Z,158.20
2019-03-13T05:42:42.191Z,166.07
2019-03-13T05:45:10.760Z,162.33
2019-03-13T05:47:39.331Z,162.10
2019-03-13T05:50:08.819Z,149.73
2019-03-13T05:52:37.084Z,158.70
2019-03-13T05:55:06.529Z,149.33
2019-03-13T05:57:35.069Z,150.63
2019-03-13T06:00:08.511Z,147.90
2019-03-13T06:02:37.157Z,153.33
2019-03-13T06:05:07.665Z,152.47
2019-03-13T06:07:36.230Z,156.27
2019-03-13T06:10:09.456Z,150.57
2019-03-13T06:12:37.989Z,158.20
2019-03-13T06:15:11.832Z,154.70
2019-03-13T06:17:40.394Z,161.73
2019-03-13T06:20:12.283Z,153.73
2019-03-13T06:22:40.925Z,153.63
2019-03-13T06:25:11.066Z,157.00
2019-03-13T06:27:39.744Z,155.70
2019-03-13T06:30:19.485Z,154.73
2019-03-13T06:32:47.775Z,161.13
2019-03-13T06:35:16.342Z,158.17
2019-03-13T06:37:44.910Z,162.30
2019-03-13T06:40:15.215Z,165.10
2019-03-13T06:42:43.705Z,167.17
2019-03-13T06:45:15.279Z,187.90
2019-03-13T06:47:43.588Z,184.23
2019-03-13T06:50:20.936Z,177.67
2019-03-13T06:52:50.426Z,173.27
2019-03-13T06:55:18.994Z,176.27
2019-03-13T06:57:47.557Z,168.83
2019-03-13T07:00:23.341Z,179.43
2019-03-13T07:03:18.844Z,164.33
2019-03-13T07:05:52.275Z,167.80
2019-03-13T07:08:37.672Z,159.73
2019-03-13T07:11:18.186Z,161.67
2019-03-13T07:13:48.392Z,166.90
2019-03-13T07:16:21.575Z,164.57
2019-03-13T07:19:08.236Z,173.27
2019-03-13T07:21:38.372Z,158.67
2019-03-13T07:24:25.349Z,164.43
2019-03-13T07:26:58.263Z,164.77
2019-03-13T07:29:34.553Z,153.40
2019-03-13T07:32:04.766Z,158.00
2019-03-13T07:34:43.404Z,154.20
2019-03-13T07:37:21.053Z,150.00
2019-03-13T07:40:07.833Z,156.47
2019-03-13T07:42:37.988Z,165.23
2019-03-13T07:45:12.420Z,157.97
2019-03-13T07:47:48.248Z,169.50
2019-03-13T07:50:24.332Z,158.37
2019-03-13T07:52:54.237Z,177.47
2019-03-13T07:55:34.349Z,170.60
2019-03-13T07:58:06.124Z,180.77
2019-03-13T08:00:36.342Z,170.93
2019-03-13T08:03:09.736Z,166.07
2019-03-13T08:05:42.179Z,167.67
2019-03-13T08:08:30.467Z,173.10
2019-03-13T08:11:09.446Z,165.90
2019-03-13T08:13:42.433Z,158.20
2019-03-13T08:16:12.639Z,164.23
2019-03-13T08:18:45.703Z,173.33
2019-03-13T08:21:28.132Z,173.37
2019-03-13T08:23:58.076Z,165.43
2019-03-13T08:26:28.213Z,179.23
2019-03-13T08:29:07.153Z,278.07
2019-03-13T08:31:55.675Z,170.50
2019-03-13T08:34:34.601Z,162.13
2019-03-13T08:37:20.797Z,170.10
2019-03-13T08:39:50.732Z,177.33
2019-03-13T08:42:30.201Z,163.47
2019-03-13T08:45:06.775Z,101.43
2019-03-13T08:47:42.271Z,35.63
2019-03-13T08:50:15.033Z,23.07
2019-03-13T08:52:45.158Z,16.23
2019-03-13T08:55:15.298Z,14.50
2019-03-13T08:57:48.310Z,34.53
2019-03-13T09:00:27.419Z,24.47
2019-03-13T09:03:00.281Z,27.60
2019-03-13T09:05:42.714Z,10.13
2019-03-13T09:08:21.967Z,16.60
2019-03-13T09:10:55.070Z,12.20
2019-03-13T09:13:25.324Z,5.40
2019-03-13T09:15:55.590Z,17.90
2019-03-13T09:18:40.822Z,30.97
2019-03-13T09:21:11.104Z,11.93
2019-03-13T09:23:57.609Z,9.63
2019-03-13T09:26:27.833Z,19.80
2019-03-13T09:28:57.997Z,8.93
2019-03-13T09:31:30.759Z,13.07
2019-03-13T09:34:03.849Z,15.77
2019-03-13T09:36:33.989Z,14.37
2019-03-13T09:39:06.907Z,12.33
2019-03-13T09:41:37.213Z,14.20
2019-03-13T09:44:19.436Z,62.00
2019-03-13T09:46:49.560Z,93.30
2019-03-13T09:49:34.784Z,59.10
2019-03-13T09:52:21.311Z,24.20
2019-03-13T09:55:07.657Z,13.93
2019-03-13T09:57:54.022Z,190.17
2019-03-13T10:00:44.341Z,184.73
2019-03-13T10:03:29.620Z,195.47
2019-03-13T10:06:16.418Z,183.07
2019-03-13T10:09:03.007Z,166.97
2019-03-13T10:11:36.160Z,180.50
2019-03-13T10:14:05.984Z,188.13
2019-03-13T10:16:39.053Z,196.87
2019-03-13T10:19:25.540Z,176.43
2019-03-13T10:22:01.669Z,183.67
2019-03-13T10:24:40.892Z,214.33
2019-03-13T10:27:13.692Z,191.33
2019-03-13T10:29:43.588Z,187.50
2019-03-13T10:32:16.502Z,188.00
2019-03-13T10:34:46.835Z,203.13
2019-03-13T10:37:29.076Z,193.17
2019-03-13T10:40:11.662Z,185.93
2019-03-13T10:42:51.067Z,194.90
2019-03-13T10:45:21.761Z,176.87
2019-03-13T10:47:55.224Z,181.93
2019-03-13T10:50:41.546Z,175.47
2019-03-13T10:53:11.713Z,172.13
2019-03-13T10:55:41.854Z,191.83
2019-03-13T10:58:12.104Z,187.07
2019-03-13T11:00:49.314Z,174.63
2019-03-13T11:03:34.898Z,167.53
2019-03-13T11:06:05.118Z,180.97
2019-03-13T11:08:38.085Z,186.13
2019-03-13T11:11:23.372Z,190.90
2019-03-13T11:13:56.619Z,183.67
2019-03-13T11:16:43.243Z,187.83
2019-03-13T11:19:31.579Z,180.67
2019-03-13T11:22:01.438Z,175.37
2019-03-13T11:24:34.331Z,181.47
2019-03-13T11:27:13.370Z,194.30
2019-03-13T11:29:49.415Z,183.73
2019-03-13T11:32:19.631Z,183.93
2019-03-13T11:54:54.976Z,195.73
2019-03-13T11:57:25.151Z,190.27
2019-03-13T12:00:01.235Z,183.07
2019-03-13T12:02:35.310Z,185.47
2019-03-13T12:05:46.541Z,181.20
2019-03-13T12:08:19.456Z,186.53
2019-03-13T12:10:52.495Z,178.00
2019-03-13T12:13:41.176Z,193.40
2019-03-13T12:16:20.560Z,199.27
2019-03-13T12:18:59.747Z,188.83
2019-03-13T12:21:33.114Z,188.03
2019-03-13T12:24:09.282Z,196.73
2019-03-13T12:26:39.475Z,187.33
2019-03-13T12:29:18.654Z,177.27
2019-03-13T12:31:54.813Z,188.13
2019-03-13T12:34:24.900Z,187.23
2019-03-13T12:36:55.046Z,185.33
2019-03-13T12:39:27.854Z,187.87
2019-03-13T12:41:58.007Z,183.10
2019-03-13T12:44:36.752Z,177.90
2019-03-13T12:47:23.075Z,182.23
2019-03-13T12:50:05.171Z,175.23
2019-03-13T12:52:38.434Z,173.73
2019-03-13T12:55:22.007Z,182.50
2019-03-13T12:57:52.230Z,183.07
2019-03-13T13:00:22.297Z,173.90
2019-03-13T13:02:54.900Z,174.53
2019-03-13T13:05:41.105Z,180.60
2019-03-13T14:00:11.234Z,182.53
2019-03-13T14:02:39.652Z,187.53
2019-03-13T14:05:08.148Z,178.50
2019-03-13T14:07:36.604Z,177.90
2019-03-13T14:10:07.930Z,175.30
2019-03-13T14:12:36.485Z,179.13
2019-03-13T14:15:12.820Z,179.30
2019-03-13T14:17:41.241Z,197.77
2019-03-13T14:20:11.203Z,174.57
2019-03-13T14:22:39.740Z,179.80
2019-03-13T14:25:12.597Z,176.53
2019-03-13T14:27:41.093Z,180.10
2019-03-13T14:30:23.011Z,175.30
2019-03-13T14:32:51.433Z,177.67
2019-03-13T14:35:20.024Z,182.47
2019-03-13T14:37:48.481Z,182.63
2019-03-13T14:40:18.440Z,189.27
2019-03-13T14:42:46.995Z,181.60
2019-03-13T14:45:17.299Z,201.47
2019-03-13T14:47:45.884Z,189.33
2019-03-13T14:50:15.759Z,189.50
2019-03-13T14:52:44.295Z,183.20
2019-03-13T14:55:16.508Z,183.93
2019-03-13T14:57:44.984Z,182.43
2019-03-13T15:00:23.854Z,187.53
2019-03-13T15:02:52.267Z,182.10
2019-03-13T15:05:20.676Z,179.97
2019-03-13T15:07:50.307Z,195.20
2019-03-13T15:10:22.421Z,186.73
2019-03-13T15:12:50.996Z,176.00
2019-03-13T15:15:22.813Z,214.87
2019-03-13T15:17:53.177Z,187.97
2019-03-13T15:20:25.928Z,179.83
2019-03-13T15:22:54.522Z,182.63
2019-03-13T15:25:23.173Z,179.57
2019-03-13T15:27:51.799Z,184.93
2019-03-13T15:30:23.603Z,196.07
2019-03-13T15:32:52.179Z,187.73
2019-03-13T15:35:20.740Z,188.63
2019-03-13T15:37:49.451Z,179.93
2019-03-13T15:40:18.625Z,135.20
2019-03-13T15:42:47.569Z,101.40
2019-03-13T15:45:24.885Z,98.17
2019-03-13T15:47:53.476Z,106.70
2019-03-13T15:50:22.054Z,104.67
2019-03-13T15:52:50.763Z,142.23
2019-03-13T15:55:19.833Z,130.93
2019-03-13T15:57:48.322Z,122.40
2019-03-13T16:00:24.674Z,106.20
2019-03-13T16:02:55.662Z,78.50
2019-03-13T16:05:23.517Z,66.00
2019-03-13T16:07:52.041Z,54.00
2019-03-13T16:10:21.190Z,64.67
2019-03-13T16:12:50.000Z,57.57
2019-03-13T16:15:36.045Z,87.13
2019-03-13T16:18:04.905Z,111.33
2019-03-13T16:20:33.462Z,110.10
2019-03-13T16:23:02.759Z,51.17
2019-03-13T16:25:31.257Z,28.77
2019-03-13T16:27:59.957Z,26.67
2019-03-13T16:30:42.518Z,60.13
2019-03-13T16:33:11.090Z,60.60
2019-03-13T16:35:39.751Z,73.07
2019-03-13T16:38:08.348Z,71.93
2019-03-13T16:40:36.974Z,52.70
2019-03-13T16:43:05.552Z,24.10
2019-03-13T16:45:34.067Z,20.83
2019-03-13T16:48:02.811Z,24.60
2019-03-13T16:50:33.520Z,23.27
2019-03-13T16:53:02.135Z,24.47
2019-03-13T16:55:31.055Z,26.77
2019-03-13T16:57:59.622Z,86.07
2019-03-13T17:00:29.420Z,106.70
2019-03-13T17:02:58.113Z,177.07
2019-03-13T17:05:26.531Z,169.80
2019-03-13T17:07:55.451Z,191.50
2019-03-13T17:10:26.194Z,209.23
2019-03-13T17:12:55.083Z,209.13
2019-03-13T17:15:24.393Z,207.93
2019-03-13T17:17:53.369Z,205.60
2019-03-13T17:20:28.259Z,187.00
2019-03-13T17:23:33.887Z,214.43
2019-03-13T17:26:02.639Z,200.77
2019-03-13T17:28:31.455Z,210.20
2019-03-13T17:30:59.943Z,193.60
2019-03-13T17:33:28.478Z,185.17
2019-03-13T17:35:57.041Z,220.63
2019-03-13T17:38:28.749Z,214.70
2019-03-13T17:40:59.394Z,216.13
2019-03-13T17:43:38.595Z,214.13
2019-03-13T17:45:57.941Z,213.00
2019-03-13T17:48:26.567Z,178.30
2019-03-13T17:50:55.104Z,223.83
2019-03-13T17:53:23.885Z,228.70
2019-03-13T17:55:52.523Z,229.53
2019-03-13T17:58:22.678Z,226.37
2019-03-13T18:00:53.220Z,234.97
2019-03-13T18:03:23.399Z,216.27
2019-03-13T18:05:52.162Z,220.37
2019-03-13T18:08:20.753Z,219.13
2019-03-13T18:10:49.482Z,214.47
2019-03-13T18:13:18.212Z,248.10
2019-03-13T18:15:47.411Z,190.03
2019-03-13T18:18:16.012Z,169.03
2019-03-13T18:20:44.606Z,168.17
2019-03-13T18:23:13.242Z,203.47
2019-03-13T18:25:42.233Z,205.37
2019-03-13T18:28:10.865Z,201.30
2019-03-13T18:30:39.770Z,199.80
2019-03-13T18:33:08.421Z,208.50
2019-03-13T18:35:36.993Z,198.87
2019-03-13T18:38:05.580Z,201.43
2019-03-13T18:40:34.168Z,213.47
2019-03-13T18:43:03.313Z,196.13
2019-03-13T18:45:36.088Z,205.17
2019-03-13T18:48:05.593Z,200.27
2019-03-13T18:50:34.161Z,195.17
2019-03-13T18:53:02.649Z,190.23
2019-03-13T18:55:32.757Z,199.30
2019-03-13T18:58:01.559Z,195.17
2019-03-13T19:00:34.937Z,171.40
2019-03-13T19:03:03.502Z,188.07
2019-03-13T19:05:33.962Z,154.53
2019-03-13T19:08:02.461Z,110.47
2019-03-13T19:10:34.438Z,139.13
2019-03-13T19:13:03.047Z,119.27
2019-03-13T19:15:40.157Z,120.40
2019-03-13T19:18:08.040Z,92.80
2019-03-13T19:20:36.615Z,112.97
2019-03-13T19:23:05.247Z,68.00
2019-03-13T19:25:33.817Z,67.20
2019-03-13T19:28:04.744Z,75.70
2019-03-13T19:30:37.360Z,88.13
2019-03-13T19:33:04.341Z,19.40
2019-03-13T19:35:33.293Z,37.90
2019-03-13T19:38:14.599Z,70.63
2019-03-13T19:40:44.316Z,109.03
2019-03-13T19:43:13.040Z,50.40
2019-03-13T19:45:45.623Z,54.47
2019-03-13T19:48:14.952Z,38.97
2019-03-13T19:50:45.802Z,110.87
2019-03-13T19:53:18.888Z,68.97
2019-03-13T19:55:47.548Z,69.93
2019-03-13T19:58:16.177Z,123.00
2019-03-13T20:00:44.883Z,74.90
2019-03-13T20:03:15.750Z,38.93
2019-03-13T20:05:46.206Z,29.90
2019-03-13T20:08:14.778Z,61.93
2019-03-13T20:10:43.253Z,96.13
2019-03-13T20:13:15.131Z,41.73
2019-03-13T20:15:43.819Z,36.80
2019-03-13T20:18:12.363Z,28.97
2019-03-13T20:20:40.996Z,24.03
2019-03-13T20:23:14.308Z,31.67
2019-03-13T20:25:44.077Z,29.27
2019-03-13T20:28:13.464Z,33.37
2019-03-13T20:30:42.113Z,74.00
2019-03-13T20:33:12.184Z,65.77
2019-03-13T20:35:40.730Z,31.57
2019-03-13T20:38:09.313Z,47.77
2019-03-13T20:40:38.071Z,25.10
2019-03-13T20:43:06.721Z,32.07
2019-03-13T20:45:35.304Z,22.43
2019-03-13T20:48:06.632Z,19.83
2019-03-13T20:50:37.656Z,22.23
2019-03-13T20:53:05.464Z,20.40
2019-03-13T20:55:34.106Z,26.33
2019-03-13T20:58:02.664Z,35.53
2019-03-13T21:00:34.410Z,35.63
2019-03-13T21:03:01.327Z,44.50
2019-03-13T21:05:29.814Z,30.17
2019-03-13T21:07:59.497Z,101.93
2019-03-13T21:10:28.111Z,89.43
2019-03-13T21:12:56.666Z,91.40
2019-03-13T21:15:26.381Z,82.53
2019-03-13T21:17:54.873Z,89.70
2019-03-13T21:20:24.999Z,50.27
2019-03-13T21:22:53.571Z,41.57
2019-03-13T21:25:26.445Z,19.90
2019-03-13T21:27:55.723Z,18.07
2019-03-13T21:30:28.210Z,32.80
2019-03-13T21:32:57.176Z,29.37
2019-03-13T21:35:25.836Z,35.23
2019-03-13T21:37:54.434Z,22.97
2019-03-13T21:40:24.104Z,22.03
2019-03-13T21:42:54.592Z,27.83
2019-03-13T21:45:23.316Z,12.50
2019-03-13T21:47:53.628Z,10.43
2019-03-13T21:50:22.114Z,33.20
2019-03-13T21:52:50.633Z,14.67
2019-03-13T21:55:19.501Z,10.10
2019-03-13T21:57:51.394Z,10.97
2019-03-13T22:00:25.612Z,31.23
2019-03-13T22:02:54.073Z,22.43
2019-03-13T22:05:26.278Z,10.73
2019-03-13T22:07:53.014Z,12.83
2019-03-13T22:10:21.555Z,25.80
2019-03-13T22:12:50.048Z,12.67
2019-03-13T22:15:19.644Z,10.20
2019-03-13T22:17:49.496Z,11.50
2019-03-13T22:20:18.482Z,10.73
2019-03-13T22:22:47.454Z,10.43
2019-03-13T22:25:18.163Z,8.77
2019-03-13T22:27:46.647Z,13.40
2019-03-13T22:30:28.420Z,14.83
2019-03-13T22:32:55.193Z,12.40
2019-03-13T22:35:23.667Z,11.70
2019-03-13T22:37:52.260Z,12.70
2019-03-13T22:40:20.820Z,13.53
2019-03-13T22:42:49.391Z,22.13
2019-03-13T22:45:19.093Z,25.37
2019-03-13T22:47:47.913Z,11.57
2019-03-13T22:50:20.609Z,12.77
2019-03-13T22:52:49.148Z,17.57
2019-03-13T22:55:17.768Z,14.20
2019-03-13T22:57:46.386Z,7.50
2019-03-13T23:00:52.663Z,19.53
2019-03-13T23:03:22.193Z,12.47
2019-03-13T23:05:50.669Z,10.80
2019-03-13T23:08:19.185Z,14.27
2019-03-13T23:10:47.691Z,10.60
2019-03-13T23:13:17.416Z,17.47
2019-03-13T23:15:46.464Z,16.63
2019-03-13T23:18:17.949Z,12.13
2019-03-13T23:20:46.714Z,12.20
2019-03-13T23:23:16.308Z,11.40
2019-03-13T23:25:44.799Z,11.00
2019-03-13T23:28:13.285Z,11.27
2019-03-13T23:30:41.888Z,11.20
2019-03-13T23:33:10.368Z,17.93
2019-03-13T23:35:38.782Z,12.43
2019-03-13T23:38:07.368Z,19.90
2019-03-13T23:40:35.929Z,12.33
2019-03-13T23:43:04.744Z,15.30
2019-03-13T23:45:33.409Z,14.03
2019-03-13T23:48:01.883Z,10.10
2019-03-13T23:50:30.366Z,14.20
2019-03-13T23:52:58.950Z,8.90
2019-03-13T23:55:27.362Z,17.03
2019-03-13T23:57:55.974Z,10.27
